createdAt,value
2022-09-26T00:03:02.197Z,-11120.44
2022-09-26T00:06:09.900Z,-11118.63
2022-09-26T00:09:18.528Z,-11142.50
2022-09-26T00:12:25.043Z,-11137.59
2022-09-26T00:15:31.411Z,-11130.84
2022-09-26T00:18:38.250Z,-11115.13
2022-09-26T00:21:44.972Z,-11107.97
2022-09-26T00:24:54.048Z,-11128.75
2022-09-26T00:28:00.331Z,-11139.56
2022-09-26T00:31:08.177Z,-11136.88
2022-09-26T00:34:15.659Z,-11124.81
2022-09-26T00:37:21.854Z,-11123.97
2022-09-26T00:40:30.713Z,-11100.94
2022-09-26T00:43:39.665Z,-11094.88
2022-09-26T00:46:49.427Z,-11106.13
2022-09-26T00:49:59.871Z,-11135.75
2022-09-26T00:53:10.916Z,-11141.66
2022-09-26T00:56:22.566Z,-11144.19
2022-09-26T00:59:32.490Z,-11134.06
2022-09-26T01:02:40.293Z,-11106.56
2022-09-26T01:05:47.510Z,-11099.53
2022-09-26T01:08:58.383Z,-11111.88
2022-09-26T01:12:08.655Z,-11114.56
2022-09-26T01:15:14.974Z,-11138.28
2022-09-26T01:18:21.621Z,-11133.50
2022-09-26T01:21:48.474Z,-11134.34
2022-09-26T01:25:08.928Z,-11120.72
2022-09-26T01:28:34.192Z,-11090.81
2022-09-26T01:32:09.678Z,-11100.94
2022-09-26T01:35:41.532Z,-11116.09
2022-09-26T01:39:01.176Z,-11121.72
2022-09-26T01:42:18.111Z,-11103.47
2022-09-26T01:45:30.653Z,-11120.59
2022-09-26T01:48:45.867Z,-11112.88
2022-09-26T01:51:59.287Z,-11109.34
2022-09-26T01:55:10.168Z,-11122.28
2022-09-26T01:58:22.113Z,-11094.19
2022-09-26T02:01:34.332Z,-11078.19
2022-09-26T02:04:44.739Z,-11088.00
2022-09-26T02:07:56.164Z,-11099.25
2022-09-26T02:11:07.662Z,-11099.25
2022-09-26T02:14:18.167Z,-11113.44
2022-09-26T02:17:32.041Z,-11094.59
2022-09-26T02:20:43.135Z,-11092.22
2022-09-26T02:23:51.039Z,-11095.31
2022-09-26T02:26:57.249Z,-11101.78
2022-09-26T02:30:03.467Z,-11096.72
2022-09-26T02:33:09.876Z,-11113.00
2022-09-26T02:36:19.888Z,-11125.66
2022-09-26T02:39:26.465Z,-11128.47
2022-09-26T02:42:37.217Z,-11119.75
2022-09-26T02:45:48.679Z,-11114.13
2022-09-26T02:49:08.687Z,-11124.25
2022-09-26T02:52:29.940Z,-11115.13
2022-09-26T02:55:46.266Z,-11112.44
2022-09-26T02:58:59.810Z,-11121.44
2022-09-26T03:02:15.893Z,-11124.66
2022-09-26T03:05:24.696Z,-11123.69
2022-09-26T03:08:38.643Z,-11100.66
2022-09-26T03:11:45.725Z,-11103.31
2022-09-26T03:14:57.876Z,-11088.84
2022-09-26T03:18:13.075Z,-11080.16
2022-09-26T03:21:19.649Z,-11078.75
2022-09-26T03:24:28.031Z,-11073.69
2022-09-26T03:27:36.068Z,-11097.00
2022-09-26T03:30:42.115Z,-11109.34
2022-09-26T03:33:48.615Z,-11113.00
2022-09-26T03:36:55.671Z,-11107.41
2022-09-26T03:40:04.110Z,-11127.34
2022-09-26T03:43:11.179Z,-11122.56
2022-09-26T03:46:17.237Z,-11101.50
2022-09-26T03:49:23.340Z,-11091.53
2022-09-26T03:52:31.123Z,-11106.56
2022-09-26T03:55:38.578Z,-11115.25
2022-09-26T03:58:44.818Z,-11093.78
2022-09-26T04:01:51.236Z,-11117.78
2022-09-26T04:04:57.506Z,-11113.72
2022-09-26T04:08:04.155Z,-11124.09
2022-09-26T04:11:13.626Z,-11116.53
2022-09-26T04:14:20.367Z,-11104.44
2022-09-26T04:17:26.847Z,-11092.78
2022-09-26T04:20:33.143Z,-11092.50
2022-09-26T04:23:41.743Z,-11087.44
2022-09-26T04:26:49.511Z,-11109.78
2022-09-26T04:29:57.292Z,-11118.47
2022-09-26T04:33:03.574Z,-11119.19
2022-09-26T04:36:12.231Z,-11124.53
2022-09-26T04:39:18.217Z,-11101.91
2022-09-26T04:42:26.093Z,-11109.78
2022-09-26T04:45:32.172Z,-11114.56
2022-09-26T04:48:38.540Z,-11107.97
2022-09-26T04:51:44.980Z,-11122.00
2022-09-26T04:54:51.190Z,-11145.19
2022-09-26T04:57:58.709Z,-11141.53
2022-09-26T05:01:06.457Z,-11145.88
2022-09-26T05:04:13.530Z,-11149.66
2022-09-26T05:07:19.912Z,-11160.06
2022-09-26T05:10:26.000Z,-11161.06
2022-09-26T05:13:33.750Z,-11148.97
2022-09-26T05:16:40.292Z,-11143.34
2022-09-26T05:19:46.349Z,-11146.44
2022-09-26T05:22:52.789Z,-11156.56
2022-09-26T05:26:16.735Z,-11164.44
2022-09-26T05:29:24.699Z,-11173.72
2022-09-26T05:32:31.160Z,-11194.38
2022-09-26T05:35:37.523Z,-11197.31
2022-09-26T05:38:43.923Z,-11169.63
2022-09-26T05:41:49.757Z,-11181.16
2022-09-26T05:44:57.663Z,-11174.25
2022-09-26T05:48:03.753Z,-11187.34
2022-09-26T05:51:12.554Z,-11195.63
2022-09-26T05:54:18.943Z,-11200.56
2022-09-26T05:57:25.477Z,-11223.62
2022-09-26T06:00:34.062Z,-11224.31
2022-09-26T06:03:44.153Z,-11223.75
2022-09-26T06:06:51.407Z,-11234.75
2022-09-26T06:09:57.403Z,-11213.06
2022-09-26T06:13:04.139Z,-11244.88
2022-09-26T06:16:14.748Z,-11246.28
2022-09-26T06:19:23.091Z,-11237.56
2022-09-26T06:22:29.746Z,-11226.84
2022-09-26T06:25:35.895Z,-11233.88
2022-09-26T06:28:42.175Z,-11226.28
2022-09-26T06:31:50.770Z,-11239.50
2022-09-26T06:34:57.159Z,-11271.59
2022-09-26T06:38:05.075Z,-11281.44
2022-09-26T06:41:11.560Z,-11295.53
2022-09-26T06:44:18.176Z,-11291.31
2022-09-26T06:47:26.100Z,-11294.25
2022-09-26T06:50:32.475Z,-11285.97
2022-09-26T06:53:39.264Z,-11287.22
2022-09-26T06:56:45.594Z,-11304.13
2022-09-26T06:59:51.641Z,-11311.16
2022-09-26T07:03:00.916Z,-11313.97
2022-09-26T07:06:07.599Z,-11300.59
2022-09-26T07:09:13.810Z,-11306.38
2022-09-26T07:12:19.982Z,-11320.72
2022-09-26T07:15:30.893Z,-11328.47
2022-09-26T07:18:39.702Z,-11304.53
2022-09-26T07:21:46.432Z,-11332.97
2022-09-26T07:24:52.787Z,-11338.34
2022-09-26T07:27:59.710Z,-11350.72
2022-09-26T07:31:07.681Z,-11337.22
2022-09-26T07:34:18.277Z,-11348.63
2022-09-26T07:37:25.371Z,-11367.22
2022-09-26T07:40:31.495Z,-11371.44
2022-09-26T07:47:21.236Z,-11350.31
2022-09-26T07:50:28.848Z,-11367.91
2022-09-26T07:53:35.032Z,-11377.78
2022-09-26T07:56:43.806Z,-11376.38
2022-09-26T07:59:50.627Z,-11385.09
2022-09-26T08:03:02.165Z,-11385.53
2022-09-26T08:06:10.659Z,-11386.50
2022-09-26T08:09:16.953Z,-11405.13
2022-09-26T08:12:23.375Z,-11417.22
2022-09-26T08:15:29.871Z,-11402.88
2022-09-26T08:18:36.330Z,-11406.25
2022-09-26T08:21:44.428Z,-11402.56
2022-09-26T08:24:51.027Z,-11415.53
2022-09-26T08:27:59.644Z,-11403.44
2022-09-26T08:31:07.202Z,-11418.66
2022-09-26T08:34:13.690Z,-11416.25
2022-09-26T08:37:21.801Z,-11436.13
2022-09-26T08:40:34.363Z,-11439.22
2022-09-26T08:44:13.101Z,-11442.63
2022-09-26T08:47:33.805Z,-11444.31
2022-09-26T08:50:47.862Z,-11455.31
2022-09-26T08:54:02.440Z,-11451.63
2022-09-26T08:57:22.561Z,-11482.25
2022-09-26T09:00:38.833Z,-11463.47
2022-09-26T09:03:52.951Z,-11496.06
2022-09-26T09:07:05.635Z,-11477.59
2022-09-26T09:10:19.415Z,-11492.81
2022-09-26T09:13:39.637Z,-11465.72
2022-09-26T09:16:58.608Z,-11490.84
2022-09-26T09:20:16.224Z,-11490.28
2022-09-26T09:23:35.830Z,-11490.00
2022-09-26T09:30:23.950Z,-11515.94
2022-09-26T09:33:35.223Z,-11493.38
2022-09-26T09:36:45.341Z,-11493.94
2022-09-26T09:39:52.503Z,-11505.22
2022-09-26T09:43:05.375Z,-11528.09
2022-09-26T09:46:18.112Z,-11554.06
2022-09-26T09:49:25.813Z,-11560.25
2022-09-26T09:52:52.340Z,-11530.19
2022-09-26T09:56:10.671Z,-11554.91
2022-09-26T09:59:42.289Z,-11577.47
2022-09-26T10:02:55.009Z,-11576.34
2022-09-26T10:06:03.162Z,-11574.38
2022-09-26T10:09:38.674Z,-11581.72
2022-09-26T10:12:45.848Z,-11579.16
2022-09-26T10:15:59.085Z,-11617.84
2022-09-26T10:19:07.311Z,-11598.66
2022-09-26T10:22:24.301Z,-11598.78
2022-09-26T10:25:30.592Z,-11584.25
2022-09-26T10:28:45.031Z,-11594.41
2022-09-26T10:31:58.719Z,-11596.53
2022-09-26T10:35:08.923Z,-11598.09
2022-09-26T10:38:21.959Z,-11581.84
2022-09-26T10:41:27.266Z,-11580.28
2022-09-26T10:44:35.038Z,-11551.78
2022-09-26T10:47:46.267Z,-11563.22
2022-09-26T10:50:55.795Z,-11558.84
2022-09-26T10:54:06.414Z,-11567.31
2022-09-26T10:57:23.205Z,-11552.34
2022-09-26T11:00:38.903Z,-11546.72
2022-09-26T11:03:47.865Z,-11576.63
2022-09-26T11:06:54.459Z,-11579.31
2022-09-26T11:10:04.452Z,-11568.72
2022-09-26T11:13:18.039Z,-11580.44
2022-09-26T11:16:24.377Z,-11584.53
2022-09-26T11:19:40.807Z,-11560.53
2022-09-26T11:22:54.487Z,-11588.78
2022-09-26T11:26:17.080Z,-11597.66
2022-09-26T11:29:38.654Z,-11606.84
2022-09-26T11:32:48.720Z,-11621.94
2022-09-26T11:36:11.051Z,-11630.84
2022-09-26T11:39:37.360Z,-11635.06
2022-09-26T11:42:55.598Z,-11596.38
2022-09-26T11:46:18.684Z,-11617.56
2022-09-26T11:49:39.745Z,-11645.66
2022-09-26T11:53:02.049Z,-11626.59
2022-09-26T11:56:32.897Z,-11620.38
2022-09-26T11:59:59.672Z,-11635.06
2022-09-26T12:03:30.563Z,-11661.63
2022-09-26T12:06:49.811Z,-11656.25
2022-09-26T12:10:13.143Z,-11635.22
2022-09-26T12:13:29.953Z,-11631.25
2022-09-26T12:16:46.739Z,-11624.91
2022-09-26T12:20:02.518Z,-11603.72
2022-09-26T12:23:20.671Z,-11617.72
2022-09-26T12:26:36.775Z,-11660.06
2022-09-26T12:29:49.483Z,-11659.91
2022-09-26T12:33:22.655Z,-11659.06
2022-09-26T12:36:40.535Z,-11646.66
2022-09-26T12:40:10.365Z,-11638.75
2022-09-26T12:43:50.635Z,-11628.28
2022-09-26T12:47:19.718Z,-11638.88
2022-09-26T12:50:37.762Z,-11628.56
2022-09-26T12:54:10.627Z,-11615.03
2022-09-26T12:57:28.301Z,-11650.59
2022-09-26T13:00:44.429Z,-11654.56
2022-09-26T13:04:25.120Z,-11625.47
2022-09-26T13:07:43.466Z,-11610.66
2022-09-26T13:11:01.258Z,-11607.53
2022-09-26T13:14:49.132Z,-11617.44
2022-09-26T13:18:02.662Z,-11589.19
2022-09-26T13:21:14.000Z,-11607.69
2022-09-26T13:24:25.700Z,-11598.78
2022-09-26T13:27:38.394Z,-11596.09
2022-09-26T13:30:50.212Z,-11600.06
2022-09-26T13:34:01.418Z,-11602.03
2022-09-26T13:37:28.687Z,-11590.31
2022-09-26T13:40:42.091Z,-11610.09
2022-09-26T13:44:03.591Z,-11609.94
2022-09-26T13:47:18.938Z,-11593.28
2022-09-26T13:50:35.427Z,-11592.84
2022-09-26T13:53:50.231Z,-11587.63
2022-09-26T13:56:56.328Z,-11567.88
2022-09-26T14:00:08.044Z,-11562.66
2022-09-26T14:03:44.588Z,-11580.00
2022-09-26T14:07:32.982Z,-11569.56
2022-09-26T14:10:42.231Z,-11552.91
2022-09-26T14:13:50.229Z,-11566.75
2022-09-26T14:16:58.325Z,-11546.84
2022-09-26T14:20:05.927Z,-11557.84
2022-09-26T14:23:35.751Z,-11576.91
2022-09-26T14:26:44.364Z,-11592.44
2022-09-26T14:29:54.456Z,-11579.16
2022-09-26T14:33:03.902Z,-11587.34
2022-09-26T14:36:26.144Z,-11557.28
2022-09-26T14:39:39.669Z,-11543.47
2022-09-26T14:42:54.076Z,-11541.78
2022-09-26T14:46:05.204Z,-11545.72
2022-09-26T14:49:23.763Z,-11532.03
2022-09-26T14:52:30.964Z,-11548.69
2022-09-26T14:55:58.519Z,-11535.41
2022-09-26T14:59:44.254Z,-11537.97
2022-09-26T15:02:50.524Z,-11528.09
2022-09-26T15:05:57.100Z,-11533.72
2022-09-26T15:09:10.673Z,-11537.41
2022-09-26T15:12:23.777Z,-11531.59
2022-09-26T15:15:42.961Z,-11532.47
2022-09-26T15:18:54.314Z,-11520.75
2022-09-26T15:22:03.026Z,-11505.94
2022-09-26T15:25:10.884Z,-11514.53
2022-09-26T15:28:18.893Z,-11514.81
2022-09-26T15:31:28.249Z,-11505.50
2022-09-26T15:34:37.181Z,-11508.34
2022-09-26T15:37:44.209Z,-11507.06
2022-09-26T15:41:01.547Z,-11490.56
2022-09-26T15:44:19.554Z,-11498.44
2022-09-26T15:47:41.839Z,-11500.16
2022-09-26T15:50:50.334Z,-11492.13
2022-09-26T15:54:00.579Z,-11495.91
2022-09-26T15:57:08.171Z,-11484.06
2022-09-26T16:00:17.025Z,-11477.16
2022-09-26T16:03:38.967Z,-11486.03
2022-09-26T16:06:54.350Z,-11488.88
2022-09-26T16:10:01.038Z,-11483.22
2022-09-26T16:13:23.990Z,-11482.66
2022-09-26T16:16:35.734Z,-11469.13
2022-09-26T16:19:47.683Z,-11468.56
2022-09-26T16:23:00.320Z,-11459.25
2022-09-26T16:26:26.187Z,-11467.72
2022-09-26T16:29:34.835Z,-11471.37
2022-09-26T16:32:42.386Z,-11464.47
2022-09-26T16:35:49.544Z,-11455.59
2022-09-26T16:38:58.947Z,-11466.31
2022-09-26T16:42:16.279Z,-11457.00
2022-09-26T16:45:22.850Z,-11458.97
2022-09-26T16:48:41.950Z,-11459.81
2022-09-26T16:52:27.051Z,-11455.31
2022-09-26T16:55:37.626Z,-11460.09
2022-09-26T16:58:50.303Z,-11452.91
2022-09-26T17:02:00.112Z,-11464.19
2022-09-26T17:05:16.924Z,-11450.66
2022-09-26T17:08:23.415Z,-11456.16
2022-09-26T17:11:30.164Z,-11449.66
2022-09-26T17:14:40.760Z,-11449.22
2022-09-26T17:17:47.185Z,-11446.84
2022-09-26T17:20:54.352Z,-11436.28
2022-09-26T17:24:00.891Z,-11442.34
2022-09-26T17:27:09.048Z,-11442.34
2022-09-26T17:30:18.314Z,-11442.34
2022-09-26T17:33:30.371Z,-11435.28
2022-09-26T17:36:39.371Z,-11428.25
2022-09-26T17:39:45.794Z,-11431.06
2022-09-26T17:42:55.436Z,-11428.66
2022-09-26T17:46:02.265Z,-11428.25
2022-09-26T17:49:14.047Z,-11430.91
2022-09-26T17:52:27.387Z,-11439.66
2022-09-26T17:55:33.672Z,-11442.63
2022-09-26T17:58:44.049Z,-11436.13
2022-09-26T18:01:54.678Z,-11441.75
2022-09-26T18:05:04.553Z,-11435.69
2022-09-26T18:08:19.330Z,-11437.69
2022-09-26T18:11:25.558Z,-11429.22
2022-09-26T18:14:35.280Z,-11434.16
2022-09-26T18:17:42.064Z,-11426.81
2022-09-26T18:20:49.339Z,-11431.19
2022-09-26T18:24:01.038Z,-11426.97
2022-09-26T18:27:07.962Z,-11424.00
2022-09-26T18:30:16.209Z,-11422.88
2022-09-26T18:33:23.164Z,-11429.09
2022-09-26T18:36:31.612Z,-11414.28
2022-09-26T18:39:39.827Z,-11407.38
2022-09-26T18:42:46.919Z,-11403.16
2022-09-26T18:45:54.283Z,-11393.28
2022-09-26T18:49:06.536Z,-11388.91
2022-09-26T18:52:16.148Z,-11398.91
2022-09-26T18:55:43.418Z,-11402.28
2022-09-26T18:58:50.762Z,-11388.63
2022-09-26T19:01:59.810Z,-11395.53
2022-09-26T19:05:08.636Z,-11392.44
2022-09-26T19:08:33.266Z,-11388.75
2022-09-26T19:11:41.932Z,-11388.75
2022-09-26T19:14:48.681Z,-11397.50
2022-09-26T19:17:55.149Z,-11397.09
2022-09-26T19:21:02.157Z,-11389.19
2022-09-26T19:24:20.435Z,-11389.03
2022-09-26T19:27:29.850Z,-11392.72
2022-09-26T19:30:36.285Z,-11389.63
2022-09-26T19:33:45.454Z,-11385.94
2022-09-26T19:36:52.446Z,-11383.13
2022-09-26T19:39:58.756Z,-11383.69
2022-09-26T19:43:06.271Z,-11384.53
2022-09-26T19:46:18.461Z,-11377.78
2022-09-26T19:49:27.151Z,-11383.69
2022-09-26T19:52:33.604Z,-11382.00
2022-09-26T19:55:40.625Z,-11381.16
2022-09-26T19:58:48.690Z,-11383.97
2022-09-26T20:01:55.223Z,-11382.84
2022-09-26T20:05:01.388Z,-11383.97
2022-09-26T20:08:09.627Z,-11383.00
2022-09-26T20:11:16.589Z,-11389.63
2022-09-26T20:14:27.293Z,-11382.28
2022-09-26T20:17:34.294Z,-11382.56
2022-09-26T20:20:42.369Z,-11374.41
2022-09-26T20:23:48.805Z,-11373.84
2022-09-26T20:26:56.467Z,-11381.72
2022-09-26T20:30:21.621Z,-11385.94
2022-09-26T20:33:28.152Z,-11375.94
2022-09-26T20:36:36.141Z,-11382.16
2022-09-26T20:39:43.348Z,-11376.38
2022-09-26T20:42:57.037Z,-11383.00
2022-09-26T20:46:06.703Z,-11385.94
2022-09-26T20:49:17.473Z,-11381.44
2022-09-26T20:52:26.151Z,-11384.25
2022-09-26T20:55:33.423Z,-11383.56
2022-09-26T20:58:39.544Z,-11378.63
2022-09-26T21:01:47.546Z,-11382.44
2022-09-26T21:04:55.011Z,-11383.28
2022-09-26T21:08:01.776Z,-11380.31
2022-09-26T21:11:11.576Z,-11383.13
2022-09-26T21:14:18.299Z,-11381.44
2022-09-26T21:17:29.312Z,-11373.84
2022-09-26T21:20:36.108Z,-11373.56
2022-09-26T21:23:44.239Z,-11370.16
2022-09-26T21:26:50.852Z,-11372.72
2022-09-26T21:29:57.353Z,-11375.66
2022-09-26T21:33:05.212Z,-11370.72
2022-09-26T21:36:11.655Z,-11375.25
2022-09-26T21:39:19.633Z,-11376.94
2022-09-26T21:42:27.359Z,-11374.41
2022-09-26T21:45:34.043Z,-11374.13
2022-09-26T21:48:41.625Z,-11377.50
2022-09-26T21:51:51.840Z,-11368.47
2022-09-26T21:55:01.038Z,-11375.53
2022-09-26T21:58:13.907Z,-11371.44
2022-09-26T22:01:20.550Z,-11384.81
2022-09-26T22:04:28.183Z,-11380.31
2022-09-26T22:07:34.067Z,-11372.72
2022-09-26T22:10:40.380Z,-11375.25
2022-09-26T22:13:46.614Z,-11378.34
2022-09-26T22:16:54.800Z,-11376.38
2022-09-26T22:20:02.464Z,-11378.06
2022-09-26T22:23:08.839Z,-11375.38
2022-09-26T22:26:15.043Z,-11382.56
2022-09-26T22:29:21.547Z,-11376.22
2022-09-26T22:32:28.308Z,-11377.22
2022-09-26T22:35:36.601Z,-11379.47
2022-09-26T22:38:43.096Z,-11378.63
2022-09-26T22:41:49.273Z,-11383.84
2022-09-26T22:44:55.807Z,-11374.13
2022-09-26T22:48:02.288Z,-11369.03
2022-09-26T22:51:10.584Z,-11371.72
2022-09-26T22:54:17.227Z,-11373.00
2022-09-26T22:57:23.585Z,-11375.53
2022-09-26T23:00:29.884Z,-11371.56
2022-09-26T23:03:36.413Z,-11367.06
2022-09-26T23:06:44.885Z,-11379.47
2022-09-26T23:09:51.033Z,-11374.69
2022-09-26T23:12:58.440Z,-11371.44
2022-09-26T23:16:06.446Z,-11373.97
2022-09-26T23:19:12.546Z,-11370.44
2022-09-26T23:22:19.907Z,-11371.44
2022-09-26T23:25:26.183Z,-11378.06
2022-09-26T23:28:33.844Z,-11372.72
2022-09-26T23:31:40.064Z,-11380.47
2022-09-26T23:34:46.304Z,-11376.09
2022-09-26T23:37:53.900Z,-11372.72
2022-09-26T23:41:00.137Z,-11367.34
2022-09-26T23:44:06.414Z,-11373.41
2022-09-26T23:47:12.650Z,-11371.56
2022-09-26T23:50:19.104Z,-11368.63
2022-09-26T23:53:26.964Z,-11373.13
2022-09-26T23:56:32.993Z,-11374.13
2022-09-26T23:59:39.474Z,-11374.13
